sensor_id;sensor_type;location;lat;lon;timestamp;P1;durP1;ratioP1;P2;durP2;ratioP2
32788;SDS011;19141;48.980;8.410;2023-07-29T04:22:33;3.17;;;1.95;;
32788;SDS011;19141;48.980;8.410;2023-07-29T04:24:59;7.40;;;3.08;;
32788;SDS011;19141;48.980;8.410;2023-07-29T04:27:24;2.60;;;1.95;;
32788;SDS011;19141;48.980;8.410;2023-07-29T04:29:50;2.75;;;2.20;;
32788;SDS011;19141;48.980;8.410;2023-07-29T04:32:15;3.30;;;1.70;;
32788;SDS011;19141;48.980;8.410;2023-07-29T04:34:41;1.63;;;1.45;;
32788;SDS011;19141;48.980;8.410;2023-07-29T04:37:06;2.85;;;1.40;;
32788;SDS011;19141;48.980;8.410;2023-07-29T04:39:32;1.70;;;1.38;;
32788;SDS011;19141;48.980;8.410;2023-07-29T04:41:58;3.10;;;1.50;;
32788;SDS011;19141;48.980;8.410;2023-07-29T04:44:24;2.67;;;1.40;;
32788;SDS011;19141;48.980;8.410;2023-07-29T04:46:49;3.80;;;1.65;;
32788;SDS011;19141;48.980;8.410;2023-07-29T04:49:14;3.85;;;1.25;;
32788;SDS011;19141;48.980;8.410;2023-07-29T04:51:40;1.77;;;1.20;;
32788;SDS011;19141;48.980;8.410;2023-07-29T04:54:05;3.47;;;1.30;;
32788;SDS011;19141;48.980;8.410;2023-07-29T04:56:31;1.90;;;1.40;;
32788;SDS011;19141;48.980;8.410;2023-07-29T04:58:56;1.73;;;1.27;;
32788;SDS011;19141;48.980;8.410;2023-07-29T05:01:21;1.67;;;1.30;;
32788;SDS011;19141;48.980;8.410;2023-07-29T05:03:47;1.88;;;1.40;;
32788;SDS011;19141;48.980;8.410;2023-07-29T05:06:13;1.95;;;1.23;;
32788;SDS011;19141;48.980;8.410;2023-07-29T05:08:38;1.92;;;1.40;;
32788;SDS011;19141;48.980;8.410;2023-07-29T05:11:04;2.75;;;2.00;;
32788;SDS011;19141;48.980;8.410;2023-07-29T05:13:29;7.75;;;1.70;;
32788;SDS011;19141;48.980;8.410;2023-07-29T05:15:55;3.13;;;1.70;;
32788;SDS011;19141;48.980;8.410;2023-07-29T05:18:21;3.22;;;1.60;;
32788;SDS011;19141;48.980;8.410;2023-07-29T05:20:46;4.07;;;1.73;;
32788;SDS011;19141;48.980;8.410;2023-07-29T05:23:13;2.13;;;1.38;;
32788;SDS011;19141;48.980;8.410;2023-07-29T05:25:38;3.78;;;1.55;;
32788;SDS011;19141;48.980;8.410;2023-07-29T05:28:03;1.55;;;1.20;;
32788;SDS011;19141;48.980;8.410;2023-07-29T05:30:29;2.83;;;1.67;;
32788;SDS011;19141;48.980;8.410;2023-07-29T05:32:59;2.20;;;1.67;;
32788;SDS011;19141;48.980;8.410;2023-07-29T05:35:25;2.00;;;1.50;;
32788;SDS011;19141;48.980;8.410;2023-07-29T05:37:51;2.20;;;1.50;;
32788;SDS011;19141;48.980;8.410;2023-07-29T05:40:16;2.67;;;1.65;;
32788;SDS011;19141;48.980;8.410;2023-07-29T05:42:42;2.95;;;1.85;;
32788;SDS011;19141;48.980;8.410;2023-07-29T05:45:10;4.80;;;1.80;;
32788;SDS011;19141;48.980;8.410;2023-07-29T05:47:36;3.47;;;1.80;;
32788;SDS011;19141;48.980;8.410;2023-07-29T05:50:02;2.90;;;1.60;;
32788;SDS011;19141;48.980;8.410;2023-07-29T05:52:30;2.53;;;1.70;;
32788;SDS011;19141;48.980;8.410;2023-07-29T05:54:55;2.90;;;1.63;;
32788;SDS011;19141;48.980;8.410;2023-07-29T05:57:21;2.72;;;1.38;;
32788;SDS011;19141;48.980;8.410;2023-07-29T05:59:46;2.47;;;1.70;;
32788;SDS011;19141;48.980;8.410;2023-07-29T06:02:12;2.80;;;1.75;;
32788;SDS011;19141;48.980;8.410;2023-07-29T06:04:37;1.80;;;1.55;;
32788;SDS011;19141;48.980;8.410;2023-07-29T06:07:02;2.10;;;1.80;;
32788;SDS011;19141;48.980;8.410;2023-07-29T06:09:28;3.33;;;2.15;;
32788;SDS011;19141;48.980;8.410;2023-07-29T06:11:53;2.28;;;1.88;;
32788;SDS011;19141;48.980;8.410;2023-07-29T06:14:19;3.67;;;1.48;;
32788;SDS011;19141;48.980;8.410;2023-07-29T06:16:45;3.35;;;1.80;;
32788;SDS011;19141;48.980;8.410;2023-07-29T06:19:11;2.45;;;1.90;;
32788;SDS011;19141;48.980;8.410;2023-07-29T06:21:36;6.82;;;1.83;;
32788;SDS011;19141;48.980;8.410;2023-07-29T06:24:02;3.33;;;1.77;;
32788;SDS011;19141;48.980;8.410;2023-07-29T06:26:28;2.13;;;1.55;;
32788;SDS011;19141;48.980;8.410;2023-07-29T06:28:53;3.30;;;1.98;;
32788;SDS011;19141;48.980;8.410;2023-07-29T06:31:19;3.60;;;1.90;;
32788;SDS011;19141;48.980;8.410;2023-07-29T06:33:44;2.72;;;2.20;;
32788;SDS011;19141;48.980;8.410;2023-07-29T06:36:10;3.25;;;1.92;;
32788;SDS011;19141;48.980;8.410;2023-07-29T06:38:35;3.58;;;1.80;;
32788;SDS011;19141;48.980;8.410;2023-07-29T06:41:00;3.25;;;1.70;;
32788;SDS011;19141;48.980;8.410;2023-07-29T06:43:26;3.05;;;1.70;;
32788;SDS011;19141;48.980;8.410;2023-07-29T06:45:51;2.40;;;1.92;;
32788;SDS011;19141;48.980;8.410;2023-07-29T06:48:17;2.65;;;1.70;;
32788;SDS011;19141;48.980;8.410;2023-07-29T06:50:43;4.60;;;2.47;;
32788;SDS011;19141;48.980;8.410;2023-07-29T06:53:09;1.80;;;1.27;;
32788;SDS011;19141;48.980;8.410;2023-07-29T06:55:34;4.22;;;1.92;;
32788;SDS011;19141;48.980;8.410;2023-07-29T06:58:00;2.05;;;1.45;;
32788;SDS011;19141;48.980;8.410;2023-07-29T07:00:25;4.93;;;1.77;;
32788;SDS011;19141;48.980;8.410;2023-07-29T07:02:50;2.47;;;1.52;;
32788;SDS011;19141;48.980;8.410;2023-07-29T07:05:16;1.90;;;1.13;;
32788;SDS011;19141;48.980;8.410;2023-07-29T07:07:41;3.08;;;1.63;;
32788;SDS011;19141;48.980;8.410;2023-07-29T07:10:07;3.25;;;1.75;;
32788;SDS011;19141;48.980;8.410;2023-07-29T07:12:33;2.72;;;1.33;;
32788;SDS011;19141;48.980;8.410;2023-07-29T07:14:58;3.05;;;1.40;;
32788;SDS011;19141;48.980;8.410;2023-07-29T07:17:23;1.70;;;1.60;;
32788;SDS011;19141;48.980;8.410;2023-07-29T07:19:49;2.22;;;1.10;;
32788;SDS011;19141;48.980;8.410;2023-07-29T07:22:15;2.28;;;1.58;;
32788;SDS011;19141;48.980;8.410;2023-07-29T07:24:41;3.42;;;1.48;;
32788;SDS011;19141;48.980;8.410;2023-07-29T07:27:06;2.78;;;1.45;;
32788;SDS011;19141;48.980;8.410;2023-07-29T07:29:32;3.55;;;1.40;;
32788;SDS011;19141;48.980;8.410;2023-07-29T07:31:57;2.00;;;1.30;;
32788;SDS011;19141;48.980;8.410;2023-07-29T07:34:22;1.73;;;1.40;;
32788;SDS011;19141;48.980;8.410;2023-07-29T07:36:48;1.50;;;1.40;;
32788;SDS011;19141;48.980;8.410;2023-07-29T07:39:14;2.70;;;1.50;;
32788;SDS011;19141;48.980;8.410;2023-07-29T07:41:40;2.45;;;1.67;;
32788;SDS011;19141;48.980;8.410;2023-07-29T07:44:07;2.25;;;1.50;;
32788;SDS011;19141;48.980;8.410;2023-07-29T07:46:33;2.03;;;1.38;;
32788;SDS011;19141;48.980;8.410;2023-07-29T07:48:58;3.65;;;1.77;;
32788;SDS011;19141;48.980;8.410;2023-07-29T07:51:24;1.45;;;1.17;;
32788;SDS011;19141;48.980;8.410;2023-07-29T07:53:49;2.10;;;1.20;;
32788;SDS011;19141;48.980;8.410;2023-07-29T07:56:15;1.48;;;1.33;;
32788;SDS011;19141;48.980;8.410;2023-07-29T07:58:40;2.50;;;1.65;;
32788;SDS011;19141;48.980;8.410;2023-07-29T08:01:06;1.13;;;0.95;;
32788;SDS011;19141;48.980;8.410;2023-07-29T08:03:33;1.30;;;1.00;;
32788;SDS011;19141;48.980;8.410;2023-07-29T08:05:59;2.35;;;1.10;;
32788;SDS011;19141;48.980;8.410;2023-07-29T08:08:25;1.33;;;1.13;;
32788;SDS011;19141;48.980;8.410;2023-07-29T08:10:52;3.22;;;1.00;;
32788;SDS011;19141;48.980;8.410;2023-07-29T08:13:19;2.78;;;1.33;;
32788;SDS011;19141;48.980;8.410;2023-07-29T08:15:45;1.90;;;1.05;;
32788;SDS011;19141;48.980;8.410;2023-07-29T08:18:12;3.22;;;1.35;;
32788;SDS011;19141;48.980;8.410;2023-07-29T08:20:37;1.70;;;1.20;;
32788;SDS011;19141;48.980;8.410;2023-07-29T08:23:03;2.20;;;1.17;;
32788;SDS011;19141;48.980;8.410;2023-07-29T08:25:29;1.48;;;1.15;;
32788;SDS011;19141;48.980;8.410;2023-07-29T08:27:54;1.83;;;1.15;;
32788;SDS011;19141;48.980;8.410;2023-07-29T08:30:20;3.65;;;1.67;;
32788;SDS011;19141;48.980;8.410;2023-07-29T08:32:45;1.10;;;0.95;;
32788;SDS011;19141;48.980;8.410;2023-07-29T08:35:10;1.52;;;1.10;;
32788;SDS011;19141;48.980;8.410;2023-07-29T08:37:36;1.33;;;1.10;;
32788;SDS011;19141;48.980;8.410;2023-07-29T08:40:01;1.27;;;0.90;;
32788;SDS011;19141;48.980;8.410;2023-07-29T08:42:29;2.35;;;1.67;;
32788;SDS011;19141;48.980;8.410;2023-07-29T08:44:57;4.93;;;1.30;;
32788;SDS011;19141;48.980;8.410;2023-07-29T08:47:31;2.90;;;1.30;;
32788;SDS011;19141;48.980;8.410;2023-07-29T08:49:56;2.30;;;1.67;;
32788;SDS011;19141;48.980;8.410;2023-07-29T08:52:24;1.85;;;1.40;;
32788;SDS011;19141;48.980;8.410;2023-07-29T08:54:51;4.07;;;1.58;;
32788;SDS011;19141;48.980;8.410;2023-07-29T08:57:17;2.83;;;1.73;;
32788;SDS011;19141;48.980;8.410;2023-07-29T08:59:45;2.53;;;1.65;;
32788;SDS011;19141;48.980;8.410;2023-07-29T09:02:10;2.58;;;1.45;;
32788;SDS011;19141;48.980;8.410;2023-07-29T09:04:36;2.10;;;1.40;;
32788;SDS011;19141;48.980;8.410;2023-07-29T09:07:01;1.65;;;1.48;;
32788;SDS011;19141;48.980;8.410;2023-07-29T09:09:27;1.75;;;1.38;;
32788;SDS011;19141;48.980;8.410;2023-07-29T09:11:53;2.60;;;1.70;;
32788;SDS011;19141;48.980;8.410;2023-07-29T09:14:19;3.00;;;1.80;;
32788;SDS011;19141;48.980;8.410;2023-07-29T09:16:45;3.15;;;2.00;;
32788;SDS011;19141;48.980;8.410;2023-07-29T09:19:11;2.28;;;2.03;;
32788;SDS011;19141;48.980;8.410;2023-07-29T09:21:38;2.78;;;1.42;;
32788;SDS011;19141;48.980;8.410;2023-07-29T09:24:05;2.95;;;1.50;;
32788;SDS011;19141;48.980;8.410;2023-07-29T09:26:32;1.98;;;1.30;;
32788;SDS011;19141;48.980;8.410;2023-07-29T09:28:58;2.55;;;1.48;;
32788;SDS011;19141;48.980;8.410;2023-07-29T09:31:25;2.03;;;1.10;;
32788;SDS011;19141;48.980;8.410;2023-07-29T09:33:58;1.70;;;1.23;;
32788;SDS011;19141;48.980;8.410;2023-07-29T09:36:25;1.88;;;1.10;;
32788;SDS011;19141;48.980;8.410;2023-07-29T09:38:54;2.78;;;0.98;;
32788;SDS011;19141;48.980;8.410;2023-07-29T09:41:24;2.45;;;1.33;;
32788;SDS011;19141;48.980;8.410;2023-07-29T09:43:57;1.15;;;0.98;;
32788;SDS011;19141;48.980;8.410;2023-07-29T09:46:34;1.58;;;1.10;;
32788;SDS011;19141;48.980;8.410;2023-07-29T09:49:02;2.13;;;1.17;;
32788;SDS011;19141;48.980;8.410;2023-07-29T09:51:28;2.42;;;1.17;;
32788;SDS011;19141;48.980;8.410;2023-07-29T09:53:53;1.35;;;1.17;;
32788;SDS011;19141;48.980;8.410;2023-07-29T09:56:25;2.08;;;1.10;;
32788;SDS011;19141;48.980;8.410;2023-07-29T09:58:56;1.77;;;1.17;;
32788;SDS011;19141;48.980;8.410;2023-07-29T10:01:22;1.00;;;0.90;;
32788;SDS011;19141;48.980;8.410;2023-07-29T10:03:48;0.98;;;0.90;;
32788;SDS011;19141;48.980;8.410;2023-07-29T10:06:15;1.67;;;1.00;;
32788;SDS011;19141;48.980;8.410;2023-07-29T10:11:08;2.15;;;1.00;;
32788;SDS011;19141;48.980;8.410;2023-07-29T10:13:35;1.10;;;1.00;;
32788;SDS011;19141;48.980;8.410;2023-07-29T10:16:01;1.33;;;0.93;;
32788;SDS011;19141;48.980;8.410;2023-07-29T10:18:28;2.58;;;1.05;;
32788;SDS011;19141;48.980;8.410;2023-07-29T10:20:55;2.00;;;1.05;;
32788;SDS011;19141;48.980;8.410;2023-07-29T10:23:22;2.00;;;1.00;;
32788;SDS011;19141;48.980;8.410;2023-07-29T10:25:57;1.02;;;0.80;;
32788;SDS011;19141;48.980;8.410;2023-07-29T10:28:29;2.53;;;1.10;;
32788;SDS011;19141;48.980;8.410;2023-07-29T10:30:56;1.27;;;1.05;;
32788;SDS011;19141;48.980;8.410;2023-07-29T10:33:22;1.05;;;0.80;;
32788;SDS011;19141;48.980;8.410;2023-07-29T10:35:47;1.85;;;1.00;;
32788;SDS011;19141;48.980;8.410;2023-07-29T10:38:14;1.85;;;0.82;;
32788;SDS011;19141;48.980;8.410;2023-07-29T10:40:45;1.83;;;1.23;;
32788;SDS011;19141;48.980;8.410;2023-07-29T10:43:12;1.67;;;0.85;;
32788;SDS011;19141;48.980;8.410;2023-07-29T10:45:43;1.77;;;0.88;;
32788;SDS011;19141;48.980;8.410;2023-07-29T10:48:12;2.42;;;0.93;;
32788;SDS011;19141;48.980;8.410;2023-07-29T10:50:38;2.05;;;0.98;;
32788;SDS011;19141;48.980;8.410;2023-07-29T10:53:04;1.13;;;0.85;;
32788;SDS011;19141;48.980;8.410;2023-07-29T10:55:33;2.33;;;1.77;;
32788;SDS011;19141;48.980;8.410;2023-07-29T11:00:30;1.30;;;0.90;;
32788;SDS011;19141;48.980;8.410;2023-07-29T11:02:58;1.25;;;1.02;;
32788;SDS011;19141;48.980;8.410;2023-07-29T11:08:16;0.68;;;0.60;;
32788;SDS011;19141;48.980;8.410;2023-07-29T11:10:43;1.48;;;0.82;;
32788;SDS011;19141;48.980;8.410;2023-07-29T11:13:11;1.58;;;1.00;;
32788;SDS011;19141;48.980;8.410;2023-07-29T11:15:38;2.97;;;1.20;;
32788;SDS011;19141;48.980;8.410;2023-07-29T11:18:04;1.70;;;0.90;;
32788;SDS011;19141;48.980;8.410;2023-07-29T11:22:58;1.50;;;0.90;;
32788;SDS011;19141;48.980;8.410;2023-07-29T11:25:28;2.78;;;1.30;;
32788;SDS011;19141;48.980;8.410;2023-07-29T11:30:21;1.65;;;1.00;;
32788;SDS011;19141;48.980;8.410;2023-07-29T11:32:47;2.15;;;1.38;;
32788;SDS011;19141;48.980;8.410;2023-07-29T11:35:16;2.90;;;1.25;;
32788;SDS011;19141;48.980;8.410;2023-07-29T11:37:46;2.40;;;1.40;;
32788;SDS011;19141;48.980;8.410;2023-07-29T11:40:17;2.58;;;1.52;;
32788;SDS011;19141;48.980;8.410;2023-07-29T11:42:44;2.30;;;1.40;;
32788;SDS011;19141;48.980;8.410;2023-07-29T11:45:11;2.47;;;1.50;;
32788;SDS011;19141;48.980;8.410;2023-07-29T11:50:04;2.10;;;1.40;;
32788;SDS011;19141;48.980;8.410;2023-07-29T11:52:32;3.17;;;1.52;;
32788;SDS011;19141;48.980;8.410;2023-07-29T11:57:25;2.83;;;1.80;;
32788;SDS011;19141;48.980;8.410;2023-07-29T11:59:50;2.38;;;1.40;;
32788;SDS011;19141;48.980;8.410;2023-07-29T12:02:16;4.03;;;2.20;;
32788;SDS011;19141;48.980;8.410;2023-07-29T12:04:44;3.53;;;1.73;;
32788;SDS011;19141;48.980;8.410;2023-07-29T12:07:12;3.78;;;1.65;;
32788;SDS011;19141;48.980;8.410;2023-07-29T12:09:39;2.92;;;1.45;;
32788;SDS011;19141;48.980;8.410;2023-07-29T12:12:06;6.53;;;2.22;;
32788;SDS011;19141;48.980;8.410;2023-07-29T12:14:32;3.25;;;1.90;;
32788;SDS011;19141;48.980;8.410;2023-07-29T12:17:00;2.80;;;1.77;;
32788;SDS011;19141;48.980;8.410;2023-07-29T12:19:33;3.22;;;2.00;;
32788;SDS011;19141;48.980;8.410;2023-07-29T12:22:02;4.55;;;2.92;;
32788;SDS011;19141;48.980;8.410;2023-07-29T12:24:32;3.17;;;1.80;;
32788;SDS011;19141;48.980;8.410;2023-07-29T12:26:58;4.25;;;2.25;;
32788;SDS011;19141;48.980;8.410;2023-07-29T12:29:24;4.15;;;1.73;;
32788;SDS011;19141;48.980;8.410;2023-07-29T12:31:56;2.80;;;1.80;;
32788;SDS011;19141;48.980;8.410;2023-07-29T12:34:26;4.43;;;2.63;;
32788;SDS011;19141;48.980;8.410;2023-07-29T12:36:56;3.20;;;2.03;;
32788;SDS011;19141;48.980;8.410;2023-07-29T12:41:50;3.65;;;1.98;;
32788;SDS011;19141;48.980;8.410;2023-07-29T12:44:16;3.33;;;1.65;;
32788;SDS011;19141;48.980;8.410;2023-07-29T12:46:42;3.83;;;1.98;;
32788;SDS011;19141;48.980;8.410;2023-07-29T12:49:08;3.65;;;1.75;;
32788;SDS011;19141;48.980;8.410;2023-07-29T12:51:34;4.30;;;2.17;;
32788;SDS011;19141;48.980;8.410;2023-07-29T12:54:00;3.10;;;1.55;;
32788;SDS011;19141;48.980;8.410;2023-07-29T12:56:26;2.67;;;1.45;;
32788;SDS011;19141;48.980;8.410;2023-07-29T12:58:51;4.82;;;1.73;;
32788;SDS011;19141;48.980;8.410;2023-07-29T13:01:17;4.90;;;1.70;;
32788;SDS011;19141;48.980;8.410;2023-07-29T13:03:47;2.63;;;1.98;;
32788;SDS011;19141;48.980;8.410;2023-07-29T13:06:13;2.78;;;1.77;;
32788;SDS011;19141;48.980;8.410;2023-07-29T13:08:38;4.82;;;1.95;;
32788;SDS011;19141;48.980;8.410;2023-07-29T13:11:04;12.38;;;2.75;;
32788;SDS011;19141;48.980;8.410;2023-07-29T13:13:29;4.05;;;2.00;;
32788;SDS011;19141;48.980;8.410;2023-07-29T13:15:55;3.65;;;1.67;;
32788;SDS011;19141;48.980;8.410;2023-07-29T13:18:21;2.28;;;1.58;;
32788;SDS011;19141;48.980;8.410;2023-07-29T13:20:46;4.28;;;1.60;;
32788;SDS011;19141;48.980;8.410;2023-07-29T13:23:12;2.28;;;1.30;;
32788;SDS011;19141;48.980;8.410;2023-07-29T13:25:37;4.30;;;1.95;;
32788;SDS011;19141;48.980;8.410;2023-07-29T13:28:02;3.05;;;1.60;;
32788;SDS011;19141;48.980;8.410;2023-07-29T13:30:28;2.92;;;1.85;;
32788;SDS011;19141;48.980;8.410;2023-07-29T13:32:54;2.50;;;1.75;;
32788;SDS011;19141;48.980;8.410;2023-07-29T13:35:19;2.78;;;2.10;;
32788;SDS011;19141;48.980;8.410;2023-07-29T13:37:45;4.60;;;2.28;;
32788;SDS011;19141;48.980;8.410;2023-07-29T13:40:10;3.45;;;1.60;;
32788;SDS011;19141;48.980;8.410;2023-07-29T13:42:36;2.78;;;1.52;;
32788;SDS011;19141;48.980;8.410;2023-07-29T13:45:01;3.40;;;1.50;;
32788;SDS011;19141;48.980;8.410;2023-07-29T13:47:27;2.60;;;1.73;;
32788;SDS011;19141;48.980;8.410;2023-07-29T13:49:53;3.35;;;1.90;;
32788;SDS011;19141;48.980;8.410;2023-07-29T13:52:18;3.65;;;2.20;;
32788;SDS011;19141;48.980;8.410;2023-07-29T13:54:43;3.55;;;1.75;;
32788;SDS011;19141;48.980;8.410;2023-07-29T13:57:09;3.42;;;1.50;;
32788;SDS011;19141;48.980;8.410;2023-07-29T13:59:35;2.58;;;1.60;;
32788;SDS011;19141;48.980;8.410;2023-07-29T14:02:04;4.30;;;2.03;;
32788;SDS011;19141;48.980;8.410;2023-07-29T14:04:30;3.05;;;1.92;;
32788;SDS011;19141;48.980;8.410;2023-07-29T14:06:55;3.25;;;1.77;;
32788;SDS011;19141;48.980;8.410;2023-07-29T14:09:21;3.00;;;1.80;;
32788;SDS011;19141;48.980;8.410;2023-07-29T14:11:46;3.88;;;1.80;;
32788;SDS011;19141;48.980;8.410;2023-07-29T14:14:12;3.45;;;2.17;;
32788;SDS011;19141;48.980;8.410;2023-07-29T14:16:37;3.28;;;1.60;;
32788;SDS011;19141;48.980;8.410;2023-07-29T14:19:02;3.40;;;1.88;;
32788;SDS011;19141;48.980;8.410;2023-07-29T14:21:28;2.15;;;1.60;;
32788;SDS011;19141;48.980;8.410;2023-07-29T14:23:53;3.72;;;1.92;;
32788;SDS011;19141;48.980;8.410;2023-07-29T14:26:19;2.45;;;1.42;;
32788;SDS011;19141;48.980;8.410;2023-07-29T14:28:44;4.00;;;1.83;;
32788;SDS011;19141;48.980;8.410;2023-07-29T14:31:10;3.50;;;1.60;;
32788;SDS011;19141;48.980;8.410;2023-07-29T14:33:35;2.90;;;1.90;;
32788;SDS011;19141;48.980;8.410;2023-07-29T14:36:00;3.30;;;1.70;;
32788;SDS011;19141;48.980;8.410;2023-07-29T14:38:28;2.38;;;1.63;;
32788;SDS011;19141;48.980;8.410;2023-07-29T14:40:54;2.15;;;1.58;;
32788;SDS011;19141;48.980;8.410;2023-07-29T14:43:21;3.03;;;1.67;;
32788;SDS011;19141;48.980;8.410;2023-07-29T14:45:48;1.98;;;1.42;;
32788;SDS011;19141;48.980;8.410;2023-07-29T14:48:13;3.08;;;1.77;;
32788;SDS011;19141;48.980;8.410;2023-07-29T14:50:38;2.88;;;1.77;;
32788;SDS011;19141;48.980;8.410;2023-07-29T14:53:04;3.50;;;1.65;;
32788;SDS011;19141;48.980;8.410;2023-07-29T14:55:29;2.80;;;1.75;;
32788;SDS011;19141;48.980;8.410;2023-07-29T14:57:55;3.78;;;1.98;;
32788;SDS011;19141;48.980;8.410;2023-07-29T15:00:20;3.90;;;1.88;;
32788;SDS011;19141;48.980;8.410;2023-07-29T15:02:45;2.58;;;1.70;;
32788;SDS011;19141;48.980;8.410;2023-07-29T15:05:11;2.80;;;1.80;;
32788;SDS011;19141;48.980;8.410;2023-07-29T15:07:36;2.90;;;1.73;;
32788;SDS011;19141;48.980;8.410;2023-07-29T15:10:02;2.42;;;1.60;;
32788;SDS011;19141;48.980;8.410;2023-07-29T15:12:27;2.92;;;1.73;;
32788;SDS011;19141;48.980;8.410;2023-07-29T15:14:53;2.65;;;1.90;;
32788;SDS011;19141;48.980;8.410;2023-07-29T15:17:18;2.60;;;1.60;;
32788;SDS011;19141;48.980;8.410;2023-07-29T15:19:43;2.33;;;1.67;;
32788;SDS011;19141;48.980;8.410;2023-07-29T15:22:09;2.95;;;1.70;;
32788;SDS011;19141;48.980;8.410;2023-07-29T15:24:34;5.50;;;2.15;;
32788;SDS011;19141;48.980;8.410;2023-07-29T15:26:59;3.30;;;2.30;;
32788;SDS011;19141;48.980;8.410;2023-07-29T15:29:25;2.63;;;1.80;;
32788;SDS011;19141;48.980;8.410;2023-07-29T15:31:50;3.22;;;1.83;;
32788;SDS011;19141;48.980;8.410;2023-07-29T15:34:16;3.33;;;1.98;;
32788;SDS011;19141;48.980;8.410;2023-07-29T15:36:41;4.18;;;2.60;;
32788;SDS011;19141;48.980;8.410;2023-07-29T15:39:07;4.18;;;1.77;;
32788;SDS011;19141;48.980;8.410;2023-07-29T15:41:33;3.65;;;1.85;;
32788;SDS011;19141;48.980;8.410;2023-07-29T15:43:59;2.35;;;1.88;;
32788;SDS011;19141;48.980;8.410;2023-07-29T15:46:24;2.92;;;2.10;;
32788;SDS011;19141;48.980;8.410;2023-07-29T15:48:50;3.83;;;2.03;;
32788;SDS011;19141;48.980;8.410;2023-07-29T15:51:16;2.92;;;1.98;;
32788;SDS011;19141;48.980;8.410;2023-07-29T15:53:41;3.22;;;2.05;;
32788;SDS011;19141;48.980;8.410;2023-07-29T15:56:06;3.30;;;1.75;;
32788;SDS011;19141;48.980;8.410;2023-07-29T15:58:32;4.70;;;2.17;;
32788;SDS011;19141;48.980;8.410;2023-07-29T16:00:57;3.90;;;2.20;;
32788;SDS011;19141;48.980;8.410;2023-07-29T16:03:23;3.47;;;2.13;;
32788;SDS011;19141;48.980;8.410;2023-07-29T16:05:48;3.58;;;1.95;;
32788;SDS011;19141;48.980;8.410;2023-07-29T16:08:14;3.50;;;2.10;;
32788;SDS011;19141;48.980;8.410;2023-07-29T16:10:39;3.08;;;2.00;;
32788;SDS011;19141;48.980;8.410;2023-07-29T16:13:05;4.10;;;2.53;;
32788;SDS011;19141;48.980;8.410;2023-07-29T16:15:31;2.95;;;1.98;;
32788;SDS011;19141;48.980;8.410;2023-07-29T16:17:57;3.15;;;2.10;;
32788;SDS011;19141;48.980;8.410;2023-07-29T16:20:24;3.58;;;2.10;;
32788;SDS011;19141;48.980;8.410;2023-07-29T16:22:50;5.75;;;2.58;;
32788;SDS011;19141;48.980;8.410;2023-07-29T16:25:15;3.78;;;2.30;;
32788;SDS011;19141;48.980;8.410;2023-07-29T16:27:41;4.20;;;2.50;;
32788;SDS011;19141;48.980;8.410;2023-07-29T16:30:06;3.45;;;2.15;;
32788;SDS011;19141;48.980;8.410;2023-07-29T16:32:32;3.60;;;2.50;;
32788;SDS011;19141;48.980;8.410;2023-07-29T16:34:57;4.47;;;2.70;;
32788;SDS011;19141;48.980;8.410;2023-07-29T16:37:23;6.80;;;2.80;;
32788;SDS011;19141;48.980;8.410;2023-07-29T16:39:48;6.30;;;3.13;;
32788;SDS011;19141;48.980;8.410;2023-07-29T16:42:14;4.07;;;1.92;;
32788;SDS011;19141;48.980;8.410;2023-07-29T16:44:39;3.65;;;2.28;;
32788;SDS011;19141;48.980;8.410;2023-07-29T16:47:05;5.38;;;2.33;;
32788;SDS011;19141;48.980;8.410;2023-07-29T16:49:31;5.50;;;3.00;;
32788;SDS011;19141;48.980;8.410;2023-07-29T16:51:57;4.32;;;2.42;;
32788;SDS011;19141;48.980;8.410;2023-07-29T16:54:23;6.15;;;3.08;;
32788;SDS011;19141;48.980;8.410;2023-07-29T16:56:48;4.75;;;2.08;;
32788;SDS011;19141;48.980;8.410;2023-07-29T16:59:14;3.95;;;2.22;;
32788;SDS011;19141;48.980;8.410;2023-07-29T17:01:40;3.30;;;1.90;;
32788;SDS011;19141;48.980;8.410;2023-07-29T17:04:05;2.90;;;2.10;;
32788;SDS011;19141;48.980;8.410;2023-07-29T17:06:31;3.50;;;2.13;;
32788;SDS011;19141;48.980;8.410;2023-07-29T17:08:56;4.32;;;2.88;;
32788;SDS011;19141;48.980;8.410;2023-07-29T17:11:21;7.93;;;3.72;;
32788;SDS011;19141;48.980;8.410;2023-07-29T17:13:47;5.90;;;3.45;;
32788;SDS011;19141;48.980;8.410;2023-07-29T17:16:12;6.10;;;4.10;;
32788;SDS011;19141;48.980;8.410;2023-07-29T17:18:38;5.78;;;3.80;;
32788;SDS011;19141;48.980;8.410;2023-07-29T17:21:04;7.00;;;4.10;;
32788;SDS011;19141;48.980;8.410;2023-07-29T17:23:30;10.93;;;4.55;;
32788;SDS011;19141;48.980;8.410;2023-07-29T17:25:55;10.50;;;5.20;;
32788;SDS011;19141;48.980;8.410;2023-07-29T17:28:21;6.43;;;3.58;;
32788;SDS011;19141;48.980;8.410;2023-07-29T17:30:50;6.28;;;3.03;;
32788;SDS011;19141;48.980;8.410;2023-07-29T17:33:18;13.85;;;6.03;;
32788;SDS011;19141;48.980;8.410;2023-07-29T17:35:45;4.80;;;2.63;;
32788;SDS011;19141;48.980;8.410;2023-07-29T17:38:11;3.80;;;2.15;;
32788;SDS011;19141;48.980;8.410;2023-07-29T17:40:36;4.72;;;2.42;;
32788;SDS011;19141;48.980;8.410;2023-07-29T17:43:02;4.90;;;2.40;;
32788;SDS011;19141;48.980;8.410;2023-07-29T17:45:28;3.70;;;1.92;;
32788;SDS011;19141;48.980;8.410;2023-07-29T17:47:53;4.90;;;2.83;;
32788;SDS011;19141;48.980;8.410;2023-07-29T17:50:19;4.28;;;2.80;;
32788;SDS011;19141;48.980;8.410;2023-07-29T17:52:45;4.30;;;2.58;;
32788;SDS011;19141;48.980;8.410;2023-07-29T17:55:11;5.10;;;2.50;;
32788;SDS011;19141;48.980;8.410;2023-07-29T17:57:36;7.22;;;3.30;;
32788;SDS011;19141;48.980;8.410;2023-07-29T18:00:02;5.82;;;3.30;;
32788;SDS011;19141;48.980;8.410;2023-07-29T18:02:31;4.45;;;2.63;;
32788;SDS011;19141;48.980;8.410;2023-07-29T18:04:57;6.63;;;3.22;;
32788;SDS011;19141;48.980;8.410;2023-07-29T18:07:23;6.05;;;2.88;;
32788;SDS011;19141;48.980;8.410;2023-07-29T18:09:49;7.22;;;3.53;;
32788;SDS011;19141;48.980;8.410;2023-07-29T18:12:14;6.85;;;3.50;;
32788;SDS011;19141;48.980;8.410;2023-07-29T18:14:40;6.30;;;3.42;;
32788;SDS011;19141;48.980;8.410;2023-07-29T18:17:05;8.15;;;4.38;;
32788;SDS011;19141;48.980;8.410;2023-07-29T18:19:31;21.90;;;10.00;;
32788;SDS011;19141;48.980;8.410;2023-07-29T18:21:57;9.30;;;5.03;;
32788;SDS011;19141;48.980;8.410;2023-07-29T18:24:23;6.80;;;3.80;;
32788;SDS011;19141;48.980;8.410;2023-07-29T18:26:48;5.68;;;3.20;;
32788;SDS011;19141;48.980;8.410;2023-07-29T18:29:14;6.07;;;3.35;;
32788;SDS011;19141;48.980;8.410;2023-07-29T18:31:39;5.22;;;2.70;;
32788;SDS011;19141;48.980;8.410;2023-07-29T18:34:04;4.25;;;2.50;;
32788;SDS011;19141;48.980;8.410;2023-07-29T18:36:30;4.05;;;2.25;;
32788;SDS011;19141;48.980;8.410;2023-07-29T18:38:55;3.42;;;2.35;;
32788;SDS011;19141;48.980;8.410;2023-07-29T18:41:21;3.53;;;1.98;;
32788;SDS011;19141;48.980;8.410;2023-07-29T18:43:46;4.88;;;2.45;;
32788;SDS011;19141;48.980;8.410;2023-07-29T18:46:12;5.15;;;3.00;;
32788;SDS011;19141;48.980;8.410;2023-07-29T18:48:37;3.40;;;2.17;;
32788;SDS011;19141;48.980;8.410;2023-07-29T18:51:02;4.50;;;2.60;;
32788;SDS011;19141;48.980;8.410;2023-07-29T18:53:30;4.18;;;2.40;;
32788;SDS011;19141;48.980;8.410;2023-07-29T18:55:56;4.30;;;2.10;;
32788;SDS011;19141;48.980;8.410;2023-07-29T18:58:21;3.95;;;2.20;;
32788;SDS011;19141;48.980;8.410;2023-07-29T19:00:47;3.95;;;2.20;;
32788;SDS011;19141;48.980;8.410;2023-07-29T19:03:14;4.90;;;2.40;;
32788;SDS011;19141;48.980;8.410;2023-07-29T19:05:39;5.13;;;3.22;;
32788;SDS011;19141;48.980;8.410;2023-07-29T19:08:05;4.18;;;2.72;;
32788;SDS011;19141;48.980;8.410;2023-07-29T19:10:33;4.50;;;2.40;;
32788;SDS011;19141;48.980;8.410;2023-07-29T19:12:59;3.40;;;2.22;;
32788;SDS011;19141;48.980;8.410;2023-07-29T19:15:25;6.05;;;2.42;;
32788;SDS011;19141;48.980;8.410;2023-07-29T19:17:50;5.57;;;2.20;;
32788;SDS011;19141;48.980;8.410;2023-07-29T19:20:16;5.00;;;2.53;;
32788;SDS011;19141;48.980;8.410;2023-07-29T19:22:41;4.72;;;2.58;;